createdAt,value
2022-09-04T00:02:23.378Z,69.98
2022-09-04T00:07:49.092Z,70.22
2022-09-04T00:12:56.095Z,70.66
2022-09-04T00:18:16.279Z,71.32
2022-09-04T00:23:30.986Z,71.41
2022-09-04T00:28:45.359Z,72.48
2022-09-04T00:33:58.805Z,73.98
2022-09-04T00:39:13.706Z,75.05
2022-09-04T00:44:42.136Z,75.50
2022-09-04T00:49:50.840Z,75.41
2022-09-04T00:54:55.215Z,76.83
2022-09-04T01:00:15.181Z,77.25
2022-09-04T01:05:27.425Z,78.35
2022-09-04T01:10:29.032Z,79.90
2022-09-04T01:15:44.844Z,79.39
2022-09-04T01:21:30.762Z,78.77
2022-09-04T01:26:58.887Z,78.09
2022-09-04T01:32:35.567Z,78.03
2022-09-04T01:37:58.517Z,77.92
2022-09-04T01:43:06.159Z,78.47
2022-09-04T01:48:10.442Z,78.56
2022-09-04T01:53:18.581Z,78.67
2022-09-04T01:58:38.457Z,79.25
2022-09-04T02:03:47.146Z,80.17
2022-09-04T02:09:16.384Z,81.33
2022-09-04T02:14:32.488Z,82.52
2022-09-04T02:20:05.477Z,83.53
2022-09-04T02:25:21.302Z,83.94
2022-09-04T02:30:23.154Z,84.02
2022-09-04T02:36:02.724Z,83.96
2022-09-04T02:41:38.784Z,84.45
2022-09-04T02:46:43.227Z,84.81
2022-09-04T02:51:45.486Z,84.73
2022-09-04T02:57:39.366Z,85.24
2022-09-04T03:02:55.599Z,85.57
2022-09-04T03:08:15.553Z,86.00
2022-09-04T03:13:47.645Z,86.65
2022-09-04T03:19:19.837Z,87.26
2022-09-04T03:25:08.837Z,87.96
2022-09-04T03:30:12.691Z,88.28
2022-09-04T03:35:49.572Z,88.57
2022-09-04T03:41:06.625Z,88.46
2022-09-04T03:46:26.733Z,89.04
2022-09-04T03:51:52.517Z,89.58
2022-09-04T03:57:03.090Z,89.83
2022-09-04T04:02:18.664Z,90.12
2022-09-04T04:07:47.904Z,90.72
2022-09-04T04:12:58.455Z,91.23
2022-09-04T04:18:36.188Z,91.71
2022-09-04T04:23:58.035Z,92.06
2022-09-04T04:29:14.763Z,92.04
2022-09-04T04:34:37.511Z,92.51
2022-09-04T04:39:54.872Z,93.57
2022-09-04T04:45:52.822Z,94.02
2022-09-04T04:51:05.269Z,94.59
2022-09-04T04:56:15.284Z,94.45
2022-09-04T05:01:40.266Z,94.82
2022-09-04T05:06:58.353Z,95.53
2022-09-04T05:12:10.974Z,95.94
2022-09-04T05:17:45.885Z,96.82
2022-09-04T05:22:56.431Z,97.44
2022-09-04T05:28:22.760Z,97.55
2022-09-04T05:33:30.440Z,98.03
2022-09-04T05:39:07.805Z,98.60
2022-09-04T05:44:33.536Z,98.76
2022-09-04T05:49:50.192Z,98.84
2022-09-04T05:54:57.733Z,99.10
2022-09-04T06:00:09.809Z,99.22
2022-09-04T06:05:36.593Z,99.23
2022-09-04T06:10:52.854Z,99.33
2022-09-04T06:16:16.176Z,99.56
2022-09-04T06:21:23.324Z,99.99
2022-09-04T06:26:37.752Z,99.72
2022-09-04T06:31:48.573Z,99.80
2022-09-04T06:37:02.864Z,99.44
2022-09-04T06:42:23.846Z,99.36
2022-09-04T06:47:50.033Z,99.27
2022-09-04T06:53:01.021Z,98.98
2022-09-04T06:58:45.649Z,98.67
2022-09-04T07:04:02.100Z,97.89
2022-09-04T07:09:20.825Z,97.09
2022-09-04T07:14:35.888Z,96.89
2022-09-04T07:20:06.020Z,96.61
2022-09-04T07:25:13.764Z,96.30
2022-09-04T07:30:17.403Z,96.03
2022-09-04T07:35:21.459Z,95.38
2022-09-04T07:40:34.657Z,94.88
2022-09-04T07:45:51.527Z,93.48
2022-09-04T07:51:03.455Z,92.70
2022-09-04T07:56:35.124Z,92.43
2022-09-04T08:02:14.127Z,92.46
2022-09-04T08:07:28.564Z,91.89
2022-09-04T08:12:57.090Z,91.69
2022-09-04T08:18:35.184Z,91.37
2022-09-04T08:23:51.615Z,91.31
2022-09-04T08:29:20.228Z,90.57
2022-09-04T08:34:34.119Z,90.42
2022-09-04T08:39:48.345Z,89.73
2022-09-04T08:45:11.854Z,89.37
2022-09-04T08:50:39.728Z,89.37
2022-09-04T08:55:55.917Z,88.41
2022-09-04T09:01:30.729Z,87.93
2022-09-04T09:07:06.048Z,88.41
2022-09-04T09:12:40.271Z,86.99
2022-09-04T09:18:02.287Z,87.34
2022-09-04T09:23:28.517Z,86.43
2022-09-04T09:28:48.521Z,86.74
2022-09-04T09:34:28.048Z,86.48
2022-09-04T09:40:01.280Z,85.58
2022-09-04T09:45:27.478Z,84.09
2022-09-04T09:50:48.689Z,83.70
2022-09-04T09:56:11.333Z,82.13
2022-09-04T10:01:46.719Z,80.70
2022-09-04T10:07:19.737Z,81.23
2022-09-04T10:12:42.733Z,81.77
2022-09-04T10:18:14.820Z,80.65
2022-09-04T10:23:31.515Z,80.24
2022-09-04T10:29:10.050Z,80.08
2022-09-04T10:34:19.183Z,79.93
2022-09-04T10:40:03.490Z,79.75
2022-09-04T10:45:15.902Z,78.51
2022-09-04T10:50:30.933Z,78.69
2022-09-04T10:55:47.628Z,78.03
2022-09-04T11:01:05.891Z,77.26
2022-09-04T11:06:28.805Z,77.09
2022-09-04T11:11:52.789Z,76.21
2022-09-04T11:17:30.489Z,75.75
2022-09-04T11:22:55.645Z,74.43
2022-09-04T11:28:20.421Z,73.69
2022-09-04T11:33:54.085Z,72.92
2022-09-04T11:39:26.101Z,71.37
2022-09-04T11:45:05.724Z,71.05
2022-09-04T11:51:01.603Z,70.82
2022-09-04T11:56:20.823Z,69.30
2022-09-04T12:01:31.087Z,68.78
2022-09-04T12:06:39.432Z,68.70
2022-09-04T12:12:00.936Z,67.83
2022-09-04T12:17:31.393Z,68.43
2022-09-04T12:23:17.900Z,68.12
2022-09-04T12:28:57.288Z,68.58
2022-09-04T12:34:24.779Z,67.57
2022-09-04T12:39:39.791Z,67.31
2022-09-04T12:44:57.931Z,67.35
2022-09-04T12:50:10.094Z,67.03
2022-09-04T12:55:38.344Z,66.34
2022-09-04T13:00:55.924Z,66.14
2022-09-04T13:06:18.721Z,66.04
2022-09-04T13:11:20.168Z,65.90
2022-09-04T13:16:46.413Z,65.09
2022-09-04T13:22:05.950Z,65.56
2022-09-04T13:27:21.255Z,64.28
2022-09-04T13:33:16.225Z,64.58
2022-09-04T13:38:55.339Z,64.24
2022-09-04T13:44:15.281Z,63.61
2022-09-04T13:49:25.725Z,64.20
2022-09-04T13:54:36.657Z,63.80
2022-09-04T13:59:38.402Z,63.66
2022-09-04T14:04:53.646Z,63.50
2022-09-04T14:10:00.514Z,63.58
2022-09-04T14:15:32.789Z,63.02
2022-09-04T14:20:41.602Z,63.00
2022-09-04T14:25:54.760Z,63.34
2022-09-04T14:31:14.806Z,63.21
2022-09-04T14:36:26.564Z,63.07
2022-09-04T14:41:46.277Z,63.67
2022-09-04T14:46:51.526Z,63.22
2022-09-04T14:51:56.580Z,63.32
2022-09-04T14:57:11.398Z,63.40
2022-09-04T15:02:21.149Z,62.96
2022-09-04T15:07:29.124Z,62.55
2022-09-04T15:12:36.362Z,63.14
2022-09-04T15:17:46.896Z,62.85
2022-09-04T15:23:19.438Z,62.63
2022-09-04T15:28:52.071Z,62.41
2022-09-04T15:34:01.398Z,61.93
2022-09-04T15:39:06.617Z,61.88
2022-09-04T15:44:33.596Z,62.10
2022-09-04T15:49:51.399Z,62.54
2022-09-04T15:55:04.147Z,62.21
2022-09-04T16:00:14.450Z,62.35
2022-09-04T16:05:28.140Z,62.52
2022-09-04T16:11:11.708Z,62.05
2022-09-04T16:16:22.877Z,62.53
2022-09-04T16:21:32.349Z,63.21
2022-09-04T16:26:34.112Z,63.50
2022-09-04T16:31:36.813Z,63.54
2022-09-04T16:36:45.648Z,63.74
2022-09-04T16:41:52.409Z,64.32
2022-09-04T16:47:04.699Z,63.97
2022-09-04T16:52:34.397Z,63.68
2022-09-04T16:58:07.234Z,64.38
2022-09-04T17:03:21.583Z,63.84
2022-09-04T17:08:39.341Z,63.97
2022-09-04T17:13:58.722Z,64.21
2022-09-04T17:19:14.202Z,64.47
2022-09-04T17:29:13.981Z,66.28
2022-09-04T17:29:52.944Z,67.46
2022-09-04T17:39:57.338Z,68.72
2022-09-04T17:46:27.594Z,70.76
2022-09-04T17:51:34.784Z,71.50
2022-09-04T17:56:51.686Z,72.88
2022-09-04T18:02:01.075Z,73.17
2022-09-04T18:07:51.017Z,73.80
2022-09-04T18:13:36.521Z,74.63
2022-09-04T18:18:49.448Z,75.62
2022-09-04T18:23:57.632Z,75.91
2022-09-04T18:29:25.057Z,76.05
2022-09-04T18:37:22.281Z,77.01
2022-09-04T18:40:43.106Z,78.80
2022-09-04T18:50:42.792Z,79.87
2022-09-04T18:51:24.828Z,80.70
2022-09-04T18:56:35.304Z,82.10
2022-09-04T19:01:43.231Z,83.11
2022-09-04T19:07:06.863Z,83.53
2022-09-04T19:12:13.754Z,85.06
2022-09-04T19:17:18.366Z,85.78
2022-09-04T19:22:34.189Z,87.38
2022-09-04T19:27:55.032Z,88.10
2022-09-04T19:33:23.406Z,89.72
2022-09-04T19:42:32.167Z,90.38
2022-09-04T19:46:03.655Z,91.38
2022-09-04T19:53:21.785Z,92.53
2022-09-04T19:55:24.889Z,92.86
2022-09-04T20:00:31.201Z,93.56
2022-09-04T20:06:30.654Z,94.06
2022-09-04T20:11:40.688Z,94.09
2022-09-04T20:16:53.146Z,94.25
2022-09-04T20:22:07.140Z,94.10
2022-09-04T20:27:15.542Z,94.22
2022-09-04T20:32:22.487Z,94.67
2022-09-04T20:37:39.386Z,94.39
2022-09-04T20:42:50.134Z,94.60
2022-09-04T20:52:50.936Z,95.21
2022-09-04T20:54:29.045Z,95.42
2022-09-04T21:03:08.986Z,95.44
2022-09-04T21:05:21.306Z,96.03
2022-09-04T21:10:37.833Z,96.70
2022-09-04T21:16:35.230Z,96.54
2022-09-04T21:21:57.883Z,97.00
2022-09-04T21:27:09.378Z,97.06
2022-09-04T21:32:44.926Z,97.50
2022-09-04T21:38:03.160Z,97.60
2022-09-04T21:44:04.269Z,97.45
2022-09-04T21:49:13.294Z,97.97
2022-09-04T21:57:08.937Z,98.02
2022-09-04T22:02:35.108Z,98.11
2022-09-04T22:06:03.990Z,97.73
2022-09-04T22:13:41.543Z,98.18
2022-09-04T22:17:03.191Z,98.42
2022-09-04T22:22:40.780Z,98.81
2022-09-04T22:28:07.391Z,99.01
2022-09-04T22:33:19.686Z,99.33
2022-09-04T22:38:42.956Z,99.32
2022-09-04T22:44:24.827Z,99.91
2022-09-04T22:49:57.402Z,100.00
2022-09-04T22:55:38.867Z,100.00
2022-09-04T23:01:29.821Z,100.00
2022-09-04T23:10:46.015Z,100.00
2022-09-04T23:13:59.327Z,100.00
2022-09-04T23:20:00.683Z,100.00
2022-09-04T23:26:42.224Z,100.00
2022-09-04T23:30:04.816Z,100.00
2022-09-04T23:35:36.959Z,100.00
2022-09-04T23:40:51.907Z,100.00
2022-09-04T23:46:24.398Z,100.00
2022-09-04T23:51:36.362Z,100.00
2022-09-04T23:56:46.297Z,100.00
